createdAt,value
2023-04-08T06:11:42.976Z,1019.96
2023-04-08T06:11:54.128Z,1019.97
2023-04-08T06:12:05.385Z,1019.96
2023-04-08T06:12:15.177Z,1019.95
2023-04-08T06:12:27.241Z,1019.98
2023-04-08T06:12:34.440Z,1019.92
2023-04-08T06:12:44.652Z,1019.91
2023-04-08T06:12:54.636Z,1019.90
2023-04-08T06:13:14.902Z,1019.93
2023-04-08T06:13:25.074Z,1019.92
2023-04-08T06:13:35.189Z,1019.93
2023-04-08T06:13:45.335Z,1019.92
2023-04-08T06:13:55.372Z,1019.93
2023-04-08T06:14:06.288Z,1019.92
2023-04-08T06:14:15.566Z,1019.97
2023-04-08T06:14:25.753Z,1020.01
2023-04-08T06:14:35.821Z,1020.00
2023-04-08T06:14:46.011Z,1019.96
2023-04-08T06:14:56.000Z,1019.97
2023-04-08T06:15:16.155Z,1019.97
2023-04-08T06:15:26.379Z,1019.98
2023-04-08T06:15:36.569Z,1019.96
2023-04-08T06:15:46.605Z,1019.98
2023-04-08T06:15:56.802Z,1019.97
2023-04-08T06:16:06.954Z,1020.00
2023-04-08T06:16:18.882Z,1019.96
2023-04-08T06:16:27.155Z,1019.99
2023-04-08T06:16:37.239Z,1019.97
2023-04-08T06:16:47.452Z,1020.00
2023-04-08T06:16:57.757Z,1019.96
2023-04-08T06:17:07.822Z,1019.98
2023-04-08T06:17:21.375Z,1019.97
2023-04-08T06:17:27.960Z,1019.99
2023-04-08T06:17:38.198Z,1019.98
2023-04-08T06:17:48.237Z,1019.99
2023-04-08T06:17:58.326Z,1019.99
2023-04-08T06:18:08.469Z,1020.00
2023-04-08T06:18:28.691Z,1020.02
2023-04-08T06:18:38.761Z,1020.01
2023-04-08T06:18:48.997Z,1020.01
2023-04-08T06:18:59.085Z,1020.02
2023-04-08T06:19:09.241Z,1020.02
2023-04-08T06:19:19.395Z,1019.95
2023-04-08T06:19:29.570Z,1019.96
2023-04-08T06:19:39.583Z,1019.98
2023-04-08T06:19:49.711Z,1019.96
2023-04-08T06:19:59.946Z,1019.96
2023-04-08T06:20:09.979Z,1019.95
2023-04-08T06:20:20.069Z,1019.91
2023-04-08T06:20:30.244Z,1019.95
2023-04-08T06:20:40.343Z,1019.97
2023-04-08T06:20:50.485Z,1019.94
2023-04-08T06:21:00.496Z,1019.90
2023-04-08T06:21:10.752Z,1019.92
2023-04-08T06:21:20.788Z,1019.94
2023-04-08T06:21:30.937Z,1019.96
2023-04-08T06:21:41.794Z,1019.94
2023-04-08T06:21:51.235Z,1019.92
2023-04-08T06:22:01.445Z,1019.93
2023-04-08T06:22:11.465Z,1019.92
2023-04-08T06:22:21.623Z,1019.90
2023-04-08T06:22:31.687Z,1019.94
2023-04-08T06:22:51.890Z,1019.91
2023-04-08T06:23:01.969Z,1019.88
2023-04-08T06:23:12.311Z,1019.92
2023-04-08T06:23:22.239Z,1019.90
2023-04-08T06:23:32.505Z,1019.93
2023-04-08T06:23:42.552Z,1019.90
2023-04-08T06:23:52.646Z,1019.93
2023-04-08T06:24:02.759Z,1019.89
2023-04-08T06:24:12.858Z,1019.84
2023-04-08T06:24:22.985Z,1019.89
2023-04-08T06:24:33.115Z,1019.92
2023-04-08T06:24:43.267Z,1019.88
2023-04-08T06:24:53.326Z,1019.96
2023-04-08T06:25:07.168Z,1019.91
2023-04-08T06:25:13.587Z,1019.90
2023-04-08T06:25:23.782Z,1019.92
2023-04-08T06:25:33.930Z,1019.91
2023-04-08T06:25:44.010Z,1019.89
2023-04-08T06:25:54.179Z,1019.90
2023-04-08T06:26:15.218Z,1019.89
2023-04-08T06:26:24.510Z,1019.92
2023-04-08T06:26:34.588Z,1019.94
2023-04-08T06:26:44.792Z,1019.95
2023-04-08T06:26:55.776Z,1019.96
2023-04-08T06:27:05.005Z,1020.00
2023-04-08T06:27:25.384Z,1019.92
2023-04-08T06:27:35.535Z,1019.94
2023-04-08T06:27:45.606Z,1019.95
2023-04-08T06:27:55.718Z,1019.94
2023-04-08T06:28:05.854Z,1019.96
2023-04-08T06:28:16.072Z,1019.94
2023-04-08T06:28:26.193Z,1019.96
2023-04-08T06:28:36.222Z,1019.93
2023-04-08T06:28:46.311Z,1019.99
2023-04-08T06:28:56.432Z,1019.96
2023-04-08T06:29:06.773Z,1019.92
2023-04-08T06:29:16.752Z,1019.93
2023-04-08T06:29:26.936Z,1019.91
2023-04-08T06:29:37.093Z,1019.89
2023-04-08T06:29:47.060Z,1019.94
2023-04-08T06:29:57.234Z,1019.93
2023-04-08T06:30:07.268Z,1019.92
2023-04-08T06:30:21.027Z,1019.86
2023-04-08T06:30:27.704Z,1019.86
2023-04-08T06:30:37.815Z,1019.93
2023-04-08T06:30:47.817Z,1019.91
2023-04-08T06:30:57.965Z,1019.91
2023-04-08T06:31:08.125Z,1019.92
2023-04-08T06:31:28.211Z,1019.91
2023-04-08T06:31:39.479Z,1019.92
2023-04-08T06:31:48.520Z,1019.90
2023-04-08T06:31:58.812Z,1019.91
2023-04-08T06:32:08.966Z,1019.92
2023-04-08T06:32:19.902Z,1019.90
2023-04-08T06:32:29.076Z,1019.92
2023-04-08T06:32:49.393Z,1019.92
2023-04-08T06:32:59.551Z,1019.94
2023-04-08T06:33:09.541Z,1019.92
2023-04-08T06:33:19.792Z,1019.90
2023-04-08T06:33:30.401Z,1019.90
2023-04-08T06:33:40.106Z,1019.89
2023-04-08T06:33:50.407Z,1019.93
2023-04-08T06:34:00.294Z,1019.91
2023-04-08T06:34:10.421Z,1019.94
2023-04-08T06:34:21.347Z,1019.95
2023-04-08T06:34:30.632Z,1019.94
2023-04-08T06:34:40.864Z,1019.98
2023-04-08T06:34:51.009Z,1019.92
2023-04-08T06:35:01.057Z,1019.95
2023-04-08T06:35:11.221Z,1019.93
2023-04-08T06:35:21.236Z,1019.96
2023-04-08T06:35:32.589Z,1019.94
2023-04-08T06:35:41.578Z,1019.88
2023-04-08T06:35:51.665Z,1019.96
2023-04-08T06:36:01.751Z,1019.95
2023-04-08T06:36:11.874Z,1019.92
2023-04-08T06:36:22.162Z,1019.93
2023-04-08T06:36:32.150Z,1019.97
2023-04-08T06:36:42.399Z,1019.97
2023-04-08T06:36:52.585Z,1019.99
2023-04-08T06:37:02.734Z,1019.96
2023-04-08T06:37:12.781Z,1019.98
2023-04-08T06:37:22.910Z,1020.00
2023-04-08T06:37:33.018Z,1019.98
2023-04-08T06:37:43.189Z,1019.96
2023-04-08T06:37:53.272Z,1020.01
2023-04-08T06:38:03.436Z,1020.03
2023-04-08T06:38:13.483Z,1019.99
2023-04-08T06:38:23.760Z,1020.01
2023-04-08T06:38:33.722Z,1020.02
2023-04-08T06:38:43.967Z,1020.02
2023-04-08T06:38:54.012Z,1019.99
2023-04-08T06:39:04.227Z,1019.99
2023-04-08T06:39:14.483Z,1020.00
2023-04-08T06:39:24.482Z,1019.99
2023-04-08T06:39:34.604Z,1019.96
2023-04-08T06:39:44.673Z,1020.00
2023-04-08T06:39:54.802Z,1020.01
2023-04-08T06:40:05.069Z,1019.98
2023-04-08T06:40:15.126Z,1019.99
2023-04-08T06:40:25.335Z,1019.98
2023-04-08T06:40:35.883Z,1019.97
2023-04-08T06:40:45.553Z,1019.97
2023-04-08T06:40:55.630Z,1019.95
2023-04-08T06:41:05.855Z,1019.97
2023-04-08T06:41:15.947Z,1019.98
2023-04-08T06:41:26.052Z,1019.98
2023-04-08T06:41:36.534Z,1019.99
2023-04-08T06:41:46.261Z,1019.95
2023-04-08T06:41:56.870Z,1019.89
2023-04-08T06:42:06.523Z,1019.93
2023-04-08T06:42:16.668Z,1019.93
2023-04-08T06:42:26.820Z,1019.95
2023-04-08T06:42:36.834Z,1019.89
2023-04-08T06:42:46.844Z,1019.87
2023-04-08T06:42:57.060Z,1019.87
2023-04-08T06:43:07.115Z,1019.84
2023-04-08T06:43:17.679Z,1019.80
2023-04-08T06:43:27.614Z,1019.79
2023-04-08T06:43:37.731Z,1019.85
2023-04-08T06:43:47.685Z,1019.82
2023-04-08T06:43:57.776Z,1019.81
2023-04-08T06:44:07.857Z,1019.82
2023-04-08T06:44:18.832Z,1019.81
2023-04-08T06:44:28.212Z,1019.84
2023-04-08T06:44:38.321Z,1019.85
2023-04-08T06:44:48.381Z,1019.88
2023-04-08T06:44:58.533Z,1019.86
2023-04-08T06:45:08.567Z,1019.85
2023-04-08T06:45:28.883Z,1019.89
2023-04-08T06:45:39.106Z,1019.90
2023-04-08T06:45:49.300Z,1019.90
2023-04-08T06:45:59.209Z,1019.91
2023-04-08T06:46:09.258Z,1019.95
2023-04-08T06:46:19.405Z,1019.86
2023-04-08T06:46:29.533Z,1019.88
2023-04-08T06:46:39.771Z,1019.89
2023-04-08T06:46:49.783Z,1019.84
2023-04-08T06:47:00.164Z,1019.92
2023-04-08T06:47:09.974Z,1019.89
2023-04-08T06:47:20.162Z,1019.89
2023-04-08T06:47:30.305Z,1019.88
2023-04-08T06:47:40.418Z,1019.86
2023-04-08T06:47:50.530Z,1019.88
2023-04-08T06:48:00.696Z,1019.86
2023-04-08T06:48:10.693Z,1019.87
2023-04-08T06:48:21.026Z,1019.87
2023-04-08T06:48:31.313Z,1019.88
2023-04-08T06:48:41.188Z,1019.83
2023-04-08T06:48:51.405Z,1019.81
2023-04-08T06:49:01.432Z,1019.82
2023-04-08T06:49:11.451Z,1019.80
2023-04-08T06:49:21.631Z,1019.78
2023-04-08T06:49:31.739Z,1019.83
2023-04-08T06:49:41.851Z,1019.79
2023-04-08T06:49:52.773Z,1019.82
2023-04-08T06:50:02.177Z,1019.77
2023-04-08T06:50:12.435Z,1019.77
2023-04-08T06:50:22.543Z,1019.76
2023-04-08T06:50:32.629Z,1019.72
2023-04-08T06:50:42.734Z,1019.70
2023-04-08T06:50:52.899Z,1019.71
2023-04-08T06:51:02.981Z,1019.65
2023-04-08T06:51:13.091Z,1019.67
2023-04-08T06:51:23.183Z,1019.72
2023-04-08T06:51:33.314Z,1019.67
2023-04-08T06:51:43.568Z,1019.64
2023-04-08T06:51:53.547Z,1019.57
2023-04-08T06:52:03.758Z,1019.56
2023-04-08T06:52:15.072Z,1019.56
2023-04-08T06:52:24.091Z,1019.52
2023-04-08T06:52:34.156Z,1019.48
2023-04-08T06:52:44.329Z,1019.47
2023-04-08T06:52:54.379Z,1019.46
2023-04-08T06:53:04.510Z,1019.47
2023-04-08T06:53:14.708Z,1019.40
2023-04-08T06:53:24.823Z,1019.40
2023-04-08T06:53:34.932Z,1019.38
2023-04-08T06:53:45.058Z,1019.35
2023-04-08T06:53:55.166Z,1019.40
2023-04-08T06:54:05.254Z,1019.39
2023-04-08T06:54:15.294Z,1019.40
2023-04-08T06:54:25.367Z,1019.41
2023-04-08T06:54:35.595Z,1019.40
2023-04-08T06:54:45.782Z,1019.40
2023-04-08T06:54:55.854Z,1019.40
2023-04-08T06:55:05.985Z,1019.39
2023-04-08T06:55:16.049Z,1019.41
2023-04-08T06:55:26.282Z,1019.40
2023-04-08T06:55:36.320Z,1019.40
2023-04-08T06:55:46.457Z,1019.41
2023-04-08T06:55:56.578Z,1019.39
2023-04-08T06:56:06.854Z,1019.38
2023-04-08T06:56:16.916Z,1019.38
2023-04-08T06:56:27.035Z,1019.40
2023-04-08T06:56:37.276Z,1019.36
2023-04-08T06:56:47.485Z,1019.36
2023-04-08T06:56:57.415Z,1019.39
2023-04-08T06:57:07.572Z,1019.41
2023-04-08T06:57:17.735Z,1019.36
2023-04-08T06:57:27.900Z,1019.36
2023-04-08T06:57:37.996Z,1019.36
2023-04-08T06:57:48.095Z,1019.41
2023-04-08T06:57:58.145Z,1019.40
2023-04-08T06:58:08.401Z,1019.39
2023-04-08T06:58:18.415Z,1019.40
2023-04-08T06:58:28.526Z,1019.39
2023-04-08T06:58:38.659Z,1019.37
2023-04-08T06:58:48.850Z,1019.35
2023-04-08T06:58:58.938Z,1019.37
2023-04-08T06:59:09.183Z,1019.40
2023-04-08T06:59:19.164Z,1019.32
2023-04-08T06:59:29.441Z,1019.33
2023-04-08T06:59:39.463Z,1019.39
2023-04-08T06:59:49.613Z,1019.35
2023-04-08T06:59:59.731Z,1019.39
2023-04-08T07:00:09.894Z,1019.45
2023-04-08T07:00:19.945Z,1019.46
2023-04-08T07:00:30.193Z,1019.52
2023-04-08T07:00:40.319Z,1019.51
2023-04-08T07:00:50.463Z,1019.56
2023-04-08T07:01:00.572Z,1019.54
2023-04-08T07:01:10.673Z,1019.61
2023-04-08T07:01:20.788Z,1019.59
2023-04-08T07:01:31.097Z,1019.63
2023-04-08T07:01:41.004Z,1019.63
2023-04-08T07:01:51.232Z,1019.64
2023-04-08T07:02:01.273Z,1019.71
2023-04-08T07:02:11.420Z,1019.73
2023-04-08T07:02:21.614Z,1019.70
2023-04-08T07:02:31.682Z,1019.71
2023-04-08T07:02:41.941Z,1019.71
2023-04-08T07:02:51.921Z,1019.75
2023-04-08T07:03:02.051Z,1019.72
2023-04-08T07:03:12.331Z,1019.69
2023-04-08T07:03:22.485Z,1019.76
2023-04-08T07:03:32.376Z,1019.78
2023-04-08T07:03:42.478Z,1019.76
2023-04-08T07:03:52.670Z,1019.80
2023-04-08T07:04:02.851Z,1019.85
2023-04-08T07:04:12.939Z,1019.85
2023-04-08T07:04:23.059Z,1019.83
2023-04-08T07:04:33.241Z,1019.86
2023-04-08T07:04:44.949Z,1019.83
2023-04-08T07:04:53.485Z,1019.92
2023-04-08T07:05:03.479Z,1019.92
2023-04-08T07:05:13.686Z,1019.94
2023-04-08T07:05:23.972Z,1019.93
2023-04-08T07:05:34.028Z,1019.85
2023-04-08T07:05:43.986Z,1019.92
2023-04-08T07:05:54.733Z,1019.94
2023-04-08T07:06:04.388Z,1019.94
2023-04-08T07:06:14.358Z,1019.92
2023-04-08T07:06:24.451Z,1019.97
2023-04-08T07:06:34.667Z,1019.96
2023-04-08T07:06:44.693Z,1019.98
2023-04-08T07:06:54.795Z,1019.98
2023-04-08T07:07:05.512Z,1019.96
2023-04-08T07:07:15.144Z,1019.97
2023-04-08T07:07:25.045Z,1019.98
2023-04-08T07:07:35.313Z,1019.96
2023-04-08T07:07:45.332Z,1019.95
2023-04-08T07:07:55.507Z,1019.97
2023-04-08T07:08:05.557Z,1020.01
2023-04-08T07:08:15.689Z,1019.97
2023-04-08T07:08:25.774Z,1019.98
2023-04-08T07:08:36.013Z,1019.94
2023-04-08T07:08:45.995Z,1020.00
2023-04-08T07:08:56.297Z,1020.05
2023-04-08T07:09:06.232Z,1020.02
2023-04-08T07:09:16.411Z,1020.01
2023-04-08T07:09:26.526Z,1019.99
2023-04-08T07:09:36.831Z,1019.97
2023-04-08T07:09:46.773Z,1019.97
2023-04-08T07:09:56.975Z,1020.03
2023-04-08T07:10:09.648Z,1020.02
2023-04-08T07:10:17.221Z,1020.03
2023-04-08T07:10:27.237Z,1019.98
2023-04-08T07:10:37.432Z,1019.99
2023-04-08T07:10:47.432Z,1019.99
2023-04-08T07:10:57.544Z,1020.02
2023-04-08T07:11:07.687Z,1020.02
2023-04-08T07:11:17.856Z,1020.03
2023-04-08T07:11:27.937Z,1020.04
2023-04-08T07:11:38.122Z,1020.01
2023-04-08T07:11:48.253Z,1020.03
2023-04-08T07:11:58.481Z,1020.01
2023-04-08T07:12:09.244Z,1020.05
2023-04-08T07:12:18.629Z,1020.03
2023-04-08T07:12:30.846Z,1020.04
2023-04-08T07:12:38.939Z,1020.02
2023-04-08T07:12:49.051Z,1020.06
2023-04-08T07:13:00.000Z,1019.99
2023-04-08T07:13:09.294Z,1020.02
2023-04-08T07:13:19.338Z,1020.02
2023-04-08T07:13:39.621Z,1020.02
2023-04-08T07:13:49.860Z,1020.06
2023-04-08T07:13:59.796Z,1020.11
2023-04-08T07:14:10.054Z,1020.03
2023-04-08T07:14:20.111Z,1020.02
2023-04-08T07:14:30.201Z,1020.07
2023-04-08T07:14:40.341Z,1020.05
2023-04-08T07:14:50.434Z,1020.05
2023-04-08T07:15:00.433Z,1020.11
2023-04-08T07:15:10.567Z,1020.08
2023-04-08T07:15:20.678Z,1020.06
2023-04-08T07:15:30.841Z,1020.08
2023-04-08T07:15:41.921Z,1020.10
2023-04-08T07:15:51.114Z,1020.09
2023-04-08T07:16:01.301Z,1020.14
2023-04-08T07:16:11.463Z,1020.10
2023-04-08T07:16:21.500Z,1020.12
2023-04-08T07:16:31.600Z,1020.06
2023-04-08T07:16:51.976Z,1020.06
2023-04-08T07:17:02.141Z,1020.07
2023-04-08T07:17:12.163Z,1020.08
2023-04-08T07:17:22.321Z,1020.05
2023-04-08T07:17:32.404Z,1020.08
2023-04-08T07:17:42.473Z,1020.03
2023-04-08T07:17:52.680Z,1020.06
2023-04-08T07:18:02.733Z,1020.06
2023-04-08T07:18:13.922Z,1020.07
2023-04-08T07:18:23.920Z,1020.10
2023-04-08T07:18:34.013Z,1020.08
2023-04-08T07:18:43.875Z,1020.05
2023-04-08T07:18:53.477Z,1020.05
2023-04-08T07:19:04.417Z,1020.02
2023-04-08T07:19:15.834Z,1019.99
2023-04-08T07:19:24.438Z,1020.01
2023-04-08T07:19:34.901Z,1020.03
2023-04-08T07:19:47.063Z,1020.13
2023-04-08T07:19:54.934Z,1020.14
2023-04-08T07:20:14.418Z,1020.11
2023-04-08T07:20:25.366Z,1020.12
2023-04-08T07:20:34.736Z,1020.11
2023-04-08T07:20:44.770Z,1020.13
2023-04-08T07:20:54.894Z,1020.15
2023-04-08T07:21:05.102Z,1020.15
2023-04-08T07:21:15.351Z,1020.16
2023-04-08T07:21:35.586Z,1020.14
2023-04-08T07:21:46.876Z,1020.16
2023-04-08T07:21:55.799Z,1020.17
2023-04-08T07:22:05.830Z,1020.18
2023-04-08T07:22:16.042Z,1020.20
2023-04-08T07:22:26.088Z,1020.22
2023-04-08T07:22:36.211Z,1020.14
2023-04-08T07:22:56.433Z,1020.20
2023-04-08T07:23:06.518Z,1020.19
2023-04-08T07:23:16.602Z,1020.17
2023-04-08T07:23:26.731Z,1020.21
2023-04-08T07:23:36.899Z,1020.21
2023-04-08T07:23:46.978Z,1020.26
2023-04-08T07:23:57.213Z,1020.20
2023-04-08T07:24:07.246Z,1020.24
2023-04-08T07:24:17.331Z,1020.24
2023-04-08T07:24:27.456Z,1020.24
2023-04-08T07:24:37.745Z,1020.23
2023-04-08T07:24:47.735Z,1020.22
2023-04-08T07:24:57.830Z,1020.18
2023-04-08T07:25:09.903Z,1020.24
